sensor_id;sensor_type;location;lat;lon;timestamp;P1;P2;P0
46681;PMS5003;34101;53.430;-2.224;2024-02-04T00:00:28;6;3;
46681;PMS5003;34101;53.430;-2.224;2024-02-04T00:02:56;5;4;
46681;PMS5003;34101;53.430;-2.224;2024-02-04T00:05:24;4;2;
46681;PMS5003;34101;53.430;-2.224;2024-02-04T00:07:51;5;3;
46681;PMS5003;34101;53.430;-2.224;2024-02-04T00:10:19;6;5;
46681;PMS5003;34101;53.430;-2.224;2024-02-04T00:12:46;7;3;
46681;PMS5003;34101;53.430;-2.224;2024-02-04T00:15:13;4;2;
46681;PMS5003;34101;53.430;-2.224;2024-02-04T00:17:42;5;2;
46681;PMS5003;34101;53.430;-2.224;2024-02-04T00:20:09;4;3;
46681;PMS5003;34101;53.430;-2.224;2024-02-04T00:22:37;1;1;
46681;PMS5003;34101;53.430;-2.224;2024-02-04T00:25:09;2;2;
46681;PMS5003;34101;53.430;-2.224;2024-02-04T00:27:37;4;1;
46681;PMS5003;34101;53.430;-2.224;2024-02-04T00:30:04;3;2;
46681;PMS5003;34101;53.430;-2.224;2024-02-04T00:32:34;3;3;
46681;PMS5003;34101;53.430;-2.224;2024-02-04T00:35:01;3;3;
46681;PMS5003;34101;53.430;-2.224;2024-02-04T00:37:29;2;2;
46681;PMS5003;34101;53.430;-2.224;2024-02-04T00:39:56;5;5;
46681;PMS5003;34101;53.430;-2.224;2024-02-04T00:42:24;1;1;
46681;PMS5003;34101;53.430;-2.224;2024-02-04T00:44:52;2;2;
46681;PMS5003;34101;53.430;-2.224;2024-02-04T00:47:19;2;2;
46681;PMS5003;34101;53.430;-2.224;2024-02-04T00:49:47;6;2;
46681;PMS5003;34101;53.430;-2.224;2024-02-04T00:52:14;3;3;
46681;PMS5003;34101;53.430;-2.224;2024-02-04T00:54:41;4;3;
46681;PMS5003;34101;53.430;-2.224;2024-02-04T00:57:09;3;2;
46681;PMS5003;34101;53.430;-2.224;2024-02-04T00:59:36;3;1;
46681;PMS5003;34101;53.430;-2.224;2024-02-04T01:02:04;1;1;
46681;PMS5003;34101;53.430;-2.224;2024-02-04T01:04:31;4;3;
46681;PMS5003;34101;53.430;-2.224;2024-02-04T01:06:58;4;2;
46681;PMS5003;34101;53.430;-2.224;2024-02-04T01:09:26;4;2;
46681;PMS5003;34101;53.430;-2.224;2024-02-04T01:11:54;5;2;
46681;PMS5003;34101;53.430;-2.224;2024-02-04T01:14:22;2;1;
46681;PMS5003;34101;53.430;-2.224;2024-02-04T01:16:49;2;2;
46681;PMS5003;34101;53.430;-2.224;2024-02-04T01:19:16;4;2;
46681;PMS5003;34101;53.430;-2.224;2024-02-04T01:21:44;3;1;
46681;PMS5003;34101;53.430;-2.224;2024-02-04T01:24:11;3;3;
46681;PMS5003;34101;53.430;-2.224;2024-02-04T01:26:39;2;2;
46681;PMS5003;34101;53.430;-2.224;2024-02-04T01:29:06;1;1;
46681;PMS5003;34101;53.430;-2.224;2024-02-04T01:31:34;6;2;
46681;PMS5003;34101;53.430;-2.224;2024-02-04T01:34:01;2;2;
46681;PMS5003;34101;53.430;-2.224;2024-02-04T01:36:28;2;2;
46681;PMS5003;34101;53.430;-2.224;2024-02-04T01:38:56;1;1;
46681;PMS5003;34101;53.430;-2.224;2024-02-04T01:41:23;2;1;
46681;PMS5003;34101;53.430;-2.224;2024-02-04T01:43:50;3;1;
46681;PMS5003;34101;53.430;-2.224;2024-02-04T01:46:18;3;3;
46681;PMS5003;34101;53.430;-2.224;2024-02-04T01:48:45;1;1;
46681;PMS5003;34101;53.430;-2.224;2024-02-04T01:51:13;4;1;
46681;PMS5003;34101;53.430;-2.224;2024-02-04T01:53:43;1;1;
46681;PMS5003;34101;53.430;-2.224;2024-02-04T01:56:12;5;5;
46681;PMS5003;34101;53.430;-2.224;2024-02-04T01:58:39;1;1;
46681;PMS5003;34101;53.430;-2.224;2024-02-04T02:01:09;2;2;
46681;PMS5003;34101;53.430;-2.224;2024-02-04T02:03:36;3;2;
46681;PMS5003;34101;53.430;-2.224;2024-02-04T02:06:05;1;1;
46681;PMS5003;34101;53.430;-2.224;2024-02-04T02:08:33;2;2;
46681;PMS5003;34101;53.430;-2.224;2024-02-04T02:11:04;3;2;
46681;PMS5003;34101;53.430;-2.224;2024-02-04T02:13:36;2;1;
46681;PMS5003;34101;53.430;-2.224;2024-02-04T02:16:07;5;2;
46681;PMS5003;34101;53.430;-2.224;2024-02-04T02:18:40;1;1;
46681;PMS5003;34101;53.430;-2.224;2024-02-04T02:21:16;0;0;
46681;PMS5003;34101;53.430;-2.224;2024-02-04T02:23:55;3;2;
46681;PMS5003;34101;53.430;-2.224;2024-02-04T02:26:30;2;2;
46681;PMS5003;34101;53.430;-2.224;2024-02-04T02:28:59;5;2;
46681;PMS5003;34101;53.430;-2.224;2024-02-04T02:31:26;2;0;
46681;PMS5003;34101;53.430;-2.224;2024-02-04T02:33:53;1;1;
46681;PMS5003;34101;53.430;-2.224;2024-02-04T02:36:21;5;2;
46681;PMS5003;34101;53.430;-2.224;2024-02-04T02:38:58;1;0;
46681;PMS5003;34101;53.430;-2.224;2024-02-04T02:41:33;1;1;
46681;PMS5003;34101;53.430;-2.224;2024-02-04T02:44:02;0;0;
46681;PMS5003;34101;53.430;-2.224;2024-02-04T02:46:31;1;1;
46681;PMS5003;34101;53.430;-2.224;2024-02-04T02:48:59;3;2;
46681;PMS5003;34101;53.430;-2.224;2024-02-04T02:51:28;0;0;
46681;PMS5003;34101;53.430;-2.224;2024-02-04T02:53:55;5;5;
46681;PMS5003;34101;53.430;-2.224;2024-02-04T02:56:23;2;1;
46681;PMS5003;34101;53.430;-2.224;2024-02-04T02:58:50;2;2;
46681;PMS5003;34101;53.430;-2.224;2024-02-04T03:02:52;1;1;
46681;PMS5003;34101;53.430;-2.224;2024-02-04T03:05:21;3;1;
46681;PMS5003;34101;53.430;-2.224;2024-02-04T03:07:48;0;0;
46681;PMS5003;34101;53.430;-2.224;2024-02-04T03:10:16;3;2;
46681;PMS5003;34101;53.430;-2.224;2024-02-04T03:12:45;1;1;
46681;PMS5003;34101;53.430;-2.224;2024-02-04T03:15:12;2;2;
46681;PMS5003;34101;53.430;-2.224;2024-02-04T03:17:40;1;1;
46681;PMS5003;34101;53.430;-2.224;2024-02-04T03:20:09;1;1;
46681;PMS5003;34101;53.430;-2.224;2024-02-04T03:22:38;2;2;
46681;PMS5003;34101;53.430;-2.224;2024-02-04T03:25:06;1;1;
46681;PMS5003;34101;53.430;-2.224;2024-02-04T03:27:33;1;1;
46681;PMS5003;34101;53.430;-2.224;2024-02-04T03:30:01;1;1;
46681;PMS5003;34101;53.430;-2.224;2024-02-04T03:32:28;2;1;
46681;PMS5003;34101;53.430;-2.224;2024-02-04T03:34:56;1;1;
46681;PMS5003;34101;53.430;-2.224;2024-02-04T03:37:23;2;2;
46681;PMS5003;34101;53.430;-2.224;2024-02-04T03:39:50;1;1;
46681;PMS5003;34101;53.430;-2.224;2024-02-04T03:42:18;3;3;
46681;PMS5003;34101;53.430;-2.224;2024-02-04T03:44:45;3;2;
46681;PMS5003;34101;53.430;-2.224;2024-02-04T03:47:12;2;2;
46681;PMS5003;34101;53.430;-2.224;2024-02-04T03:49:40;2;2;
46681;PMS5003;34101;53.430;-2.224;2024-02-04T03:52:07;2;2;
46681;PMS5003;34101;53.430;-2.224;2024-02-04T03:54:35;1;1;
46681;PMS5003;34101;53.430;-2.224;2024-02-04T03:57:02;3;2;
46681;PMS5003;34101;53.430;-2.224;2024-02-04T03:59:30;1;1;
46681;PMS5003;34101;53.430;-2.224;2024-02-04T04:01:58;2;2;
46681;PMS5003;34101;53.430;-2.224;2024-02-04T04:04:25;3;3;
46681;PMS5003;34101;53.430;-2.224;2024-02-04T04:06:52;3;1;
46681;PMS5003;34101;53.430;-2.224;2024-02-04T04:09:20;3;3;
46681;PMS5003;34101;53.430;-2.224;2024-02-04T04:11:47;2;2;
46681;PMS5003;34101;53.430;-2.224;2024-02-04T04:14:15;2;1;
46681;PMS5003;34101;53.430;-2.224;2024-02-04T04:16:42;4;2;
46681;PMS5003;34101;53.430;-2.224;2024-02-04T04:19:10;3;1;
46681;PMS5003;34101;53.430;-2.224;2024-02-04T04:21:37;2;2;
46681;PMS5003;34101;53.430;-2.224;2024-02-04T04:24:05;2;2;
46681;PMS5003;34101;53.430;-2.224;2024-02-04T04:26:32;2;2;
46681;PMS5003;34101;53.430;-2.224;2024-02-04T04:28:59;2;2;
46681;PMS5003;34101;53.430;-2.224;2024-02-04T04:31:27;3;3;
46681;PMS5003;34101;53.430;-2.224;2024-02-04T04:33:54;3;1;
46681;PMS5003;34101;53.430;-2.224;2024-02-04T04:36:21;2;2;
46681;PMS5003;34101;53.430;-2.224;2024-02-04T04:38:49;1;1;
46681;PMS5003;34101;53.430;-2.224;2024-02-04T04:41:16;1;1;
46681;PMS5003;34101;53.430;-2.224;2024-02-04T04:43:44;2;1;
46681;PMS5003;34101;53.430;-2.224;2024-02-04T04:46:11;0;0;
46681;PMS5003;34101;53.430;-2.224;2024-02-04T04:48:38;0;0;
46681;PMS5003;34101;53.430;-2.224;2024-02-04T04:51:07;3;1;
46681;PMS5003;34101;53.430;-2.224;2024-02-04T04:53:34;0;0;
46681;PMS5003;34101;53.430;-2.224;2024-02-04T04:56:02;1;1;
46681;PMS5003;34101;53.430;-2.224;2024-02-04T04:58:30;1;1;
46681;PMS5003;34101;53.430;-2.224;2024-02-04T05:00:57;3;1;
46681;PMS5003;34101;53.430;-2.224;2024-02-04T05:03:25;3;1;
46681;PMS5003;34101;53.430;-2.224;2024-02-04T05:05:52;0;0;
46681;PMS5003;34101;53.430;-2.224;2024-02-04T05:08:19;1;1;
46681;PMS5003;34101;53.430;-2.224;2024-02-04T05:10:47;2;0;
46681;PMS5003;34101;53.430;-2.224;2024-02-04T05:13:14;1;1;
46681;PMS5003;34101;53.430;-2.224;2024-02-04T05:15:42;1;1;
46681;PMS5003;34101;53.430;-2.224;2024-02-04T05:18:09;0;0;
46681;PMS5003;34101;53.430;-2.224;2024-02-04T05:20:36;1;1;
46681;PMS5003;34101;53.430;-2.224;2024-02-04T05:23:04;1;1;
46681;PMS5003;34101;53.430;-2.224;2024-02-04T05:25:31;0;0;
46681;PMS5003;34101;53.430;-2.224;2024-02-04T05:27:59;1;1;
46681;PMS5003;34101;53.430;-2.224;2024-02-04T05:30:27;2;2;
46681;PMS5003;34101;53.430;-2.224;2024-02-04T05:32:55;1;1;
46681;PMS5003;34101;53.430;-2.224;2024-02-04T05:35:22;1;1;
46681;PMS5003;34101;53.430;-2.224;2024-02-04T05:37:49;0;0;
46681;PMS5003;34101;53.430;-2.224;2024-02-04T05:40:17;1;1;
46681;PMS5003;34101;53.430;-2.224;2024-02-04T05:42:44;2;1;
46681;PMS5003;34101;53.430;-2.224;2024-02-04T05:45:11;1;1;
46681;PMS5003;34101;53.430;-2.224;2024-02-04T05:47:39;2;2;
46681;PMS5003;34101;53.430;-2.224;2024-02-04T05:50:07;1;1;
46681;PMS5003;34101;53.430;-2.224;2024-02-04T05:52:34;5;2;
46681;PMS5003;34101;53.430;-2.224;2024-02-04T05:55:02;3;3;
46681;PMS5003;34101;53.430;-2.224;2024-02-04T05:57:29;2;2;
46681;PMS5003;34101;53.430;-2.224;2024-02-04T05:59:57;4;2;
46681;PMS5003;34101;53.430;-2.224;2024-02-04T06:02:24;2;2;
46681;PMS5003;34101;53.430;-2.224;2024-02-04T06:04:52;3;3;
46681;PMS5003;34101;53.430;-2.224;2024-02-04T06:07:19;2;2;
46681;PMS5003;34101;53.430;-2.224;2024-02-04T06:09:46;3;2;
46681;PMS5003;34101;53.430;-2.224;2024-02-04T06:12:14;2;2;
46681;PMS5003;34101;53.430;-2.224;2024-02-04T06:14:41;1;1;
46681;PMS5003;34101;53.430;-2.224;2024-02-04T06:17:09;2;2;
46681;PMS5003;34101;53.430;-2.224;2024-02-04T06:19:36;1;1;
46681;PMS5003;34101;53.430;-2.224;2024-02-04T06:22:03;1;1;
46681;PMS5003;34101;53.430;-2.224;2024-02-04T06:24:31;1;1;
46681;PMS5003;34101;53.430;-2.224;2024-02-04T06:26:58;2;1;
46681;PMS5003;34101;53.430;-2.224;2024-02-04T06:29:26;1;1;
46681;PMS5003;34101;53.430;-2.224;2024-02-04T06:31:53;0;0;
46681;PMS5003;34101;53.430;-2.224;2024-02-04T06:34:21;1;1;
46681;PMS5003;34101;53.430;-2.224;2024-02-04T06:36:48;0;0;
46681;PMS5003;34101;53.430;-2.224;2024-02-04T06:39:15;1;1;
46681;PMS5003;34101;53.430;-2.224;2024-02-04T06:41:43;0;0;
46681;PMS5003;34101;53.430;-2.224;2024-02-04T06:44:10;0;0;
46681;PMS5003;34101;53.430;-2.224;2024-02-04T06:46:37;0;0;
46681;PMS5003;34101;53.430;-2.224;2024-02-04T06:49:05;2;1;
46681;PMS5003;34101;53.430;-2.224;2024-02-04T06:51:32;0;0;
46681;PMS5003;34101;53.430;-2.224;2024-02-04T06:54:00;0;0;
46681;PMS5003;34101;53.430;-2.224;2024-02-04T06:56:27;0;0;
46681;PMS5003;34101;53.430;-2.224;2024-02-04T06:58:55;0;0;
46681;PMS5003;34101;53.430;-2.224;2024-02-04T07:01:22;0;0;
46681;PMS5003;34101;53.430;-2.224;2024-02-04T07:03:49;0;0;
46681;PMS5003;34101;53.430;-2.224;2024-02-04T07:06:17;0;0;
46681;PMS5003;34101;53.430;-2.224;2024-02-04T07:08:44;0;0;
46681;PMS5003;34101;53.430;-2.224;2024-02-04T07:11:11;0;0;
46681;PMS5003;34101;53.430;-2.224;2024-02-04T07:13:39;0;0;
46681;PMS5003;34101;53.430;-2.224;2024-02-04T07:16:06;0;0;
46681;PMS5003;34101;53.430;-2.224;2024-02-04T07:18:34;0;0;
46681;PMS5003;34101;53.430;-2.224;2024-02-04T07:21:01;0;0;
46681;PMS5003;34101;53.430;-2.224;2024-02-04T07:23:29;0;0;
46681;PMS5003;34101;53.430;-2.224;2024-02-04T07:25:56;0;0;
46681;PMS5003;34101;53.430;-2.224;2024-02-04T07:28:23;0;0;
46681;PMS5003;34101;53.430;-2.224;2024-02-04T07:30:51;0;0;
46681;PMS5003;34101;53.430;-2.224;2024-02-04T07:33:18;0;0;
46681;PMS5003;34101;53.430;-2.224;2024-02-04T07:35:46;0;0;
46681;PMS5003;34101;53.430;-2.224;2024-02-04T07:38:13;0;0;
46681;PMS5003;34101;53.430;-2.224;2024-02-04T07:40:40;0;0;
46681;PMS5003;34101;53.430;-2.224;2024-02-04T07:43:08;0;0;
46681;PMS5003;34101;53.430;-2.224;2024-02-04T07:45:35;1;1;
46681;PMS5003;34101;53.430;-2.224;2024-02-04T07:48:04;0;0;
46681;PMS5003;34101;53.430;-2.224;2024-02-04T07:50:32;0;0;
46681;PMS5003;34101;53.430;-2.224;2024-02-04T07:52:59;0;0;
46681;PMS5003;34101;53.430;-2.224;2024-02-04T07:55:26;0;0;
46681;PMS5003;34101;53.430;-2.224;2024-02-04T07:57:54;1;1;
46681;PMS5003;34101;53.430;-2.224;2024-02-04T08:00:21;3;1;
46681;PMS5003;34101;53.430;-2.224;2024-02-04T08:02:48;1;1;
46681;PMS5003;34101;53.430;-2.224;2024-02-04T08:05:16;1;1;
46681;PMS5003;34101;53.430;-2.224;2024-02-04T08:07:43;2;2;
46681;PMS5003;34101;53.430;-2.224;2024-02-04T08:10:11;1;1;
46681;PMS5003;34101;53.430;-2.224;2024-02-04T08:12:38;2;2;
46681;PMS5003;34101;53.430;-2.224;2024-02-04T08:15:06;3;2;
46681;PMS5003;34101;53.430;-2.224;2024-02-04T08:17:34;2;2;
46681;PMS5003;34101;53.430;-2.224;2024-02-04T08:20:01;1;1;
46681;PMS5003;34101;53.430;-2.224;2024-02-04T08:22:29;3;2;
46681;PMS5003;34101;53.430;-2.224;2024-02-04T08:24:57;1;1;
46681;PMS5003;34101;53.430;-2.224;2024-02-04T08:27:25;4;2;
46681;PMS5003;34101;53.430;-2.224;2024-02-04T08:29:53;1;1;
46681;PMS5003;34101;53.430;-2.224;2024-02-04T08:32:21;1;1;
46681;PMS5003;34101;53.430;-2.224;2024-02-04T08:34:48;0;0;
46681;PMS5003;34101;53.430;-2.224;2024-02-04T08:37:16;3;2;
46681;PMS5003;34101;53.430;-2.224;2024-02-04T08:39:43;1;1;
46681;PMS5003;34101;53.430;-2.224;2024-02-04T08:42:11;2;1;
46681;PMS5003;34101;53.430;-2.224;2024-02-04T08:44:38;2;2;
46681;PMS5003;34101;53.430;-2.224;2024-02-04T08:47:06;0;0;
46681;PMS5003;34101;53.430;-2.224;2024-02-04T08:49:33;2;0;
46681;PMS5003;34101;53.430;-2.224;2024-02-04T08:52:01;4;1;
46681;PMS5003;34101;53.430;-2.224;2024-02-04T08:54:28;3;2;
46681;PMS5003;34101;53.430;-2.224;2024-02-04T08:56:56;1;1;
46681;PMS5003;34101;53.430;-2.224;2024-02-04T08:59:23;0;0;
46681;PMS5003;34101;53.430;-2.224;2024-02-04T09:01:51;0;0;
46681;PMS5003;34101;53.430;-2.224;2024-02-04T09:04:18;0;0;
46681;PMS5003;34101;53.430;-2.224;2024-02-04T09:06:46;1;1;
46681;PMS5003;34101;53.430;-2.224;2024-02-04T09:09:13;2;1;
46681;PMS5003;34101;53.430;-2.224;2024-02-04T09:11:41;0;0;
46681;PMS5003;34101;53.430;-2.224;2024-02-04T09:14:08;1;1;
46681;PMS5003;34101;53.430;-2.224;2024-02-04T09:16:37;2;1;
46681;PMS5003;34101;53.430;-2.224;2024-02-04T09:19:05;0;0;
46681;PMS5003;34101;53.430;-2.224;2024-02-04T09:21:34;0;0;
46681;PMS5003;34101;53.430;-2.224;2024-02-04T09:24:02;1;1;
46681;PMS5003;34101;53.430;-2.224;2024-02-04T09:26:30;0;0;
46681;PMS5003;34101;53.430;-2.224;2024-02-04T09:28:57;0;0;
46681;PMS5003;34101;53.430;-2.224;2024-02-04T09:31:24;0;0;
46681;PMS5003;34101;53.430;-2.224;2024-02-04T09:33:52;1;0;
46681;PMS5003;34101;53.430;-2.224;2024-02-04T09:36:19;0;0;
46681;PMS5003;34101;53.430;-2.224;2024-02-04T09:38:47;1;0;
46681;PMS5003;34101;53.430;-2.224;2024-02-04T09:41:14;0;0;
46681;PMS5003;34101;53.430;-2.224;2024-02-04T09:43:41;0;0;
46681;PMS5003;34101;53.430;-2.224;2024-02-04T09:46:10;1;0;
46681;PMS5003;34101;53.430;-2.224;2024-02-04T09:48:38;0;0;
46681;PMS5003;34101;53.430;-2.224;2024-02-04T09:51:07;0;0;
46681;PMS5003;34101;53.430;-2.224;2024-02-04T09:53:35;0;0;
46681;PMS5003;34101;53.430;-2.224;2024-02-04T09:56:03;0;0;
46681;PMS5003;34101;53.430;-2.224;2024-02-04T09:58:32;1;1;
46681;PMS5003;34101;53.430;-2.224;2024-02-04T10:01:00;1;1;
46681;PMS5003;34101;53.430;-2.224;2024-02-04T10:03:28;3;1;
46681;PMS5003;34101;53.430;-2.224;2024-02-04T10:05:56;2;2;
46681;PMS5003;34101;53.430;-2.224;2024-02-04T10:08:23;4;3;
46681;PMS5003;34101;53.430;-2.224;2024-02-04T10:10:50;1;1;
46681;PMS5003;34101;53.430;-2.224;2024-02-04T10:13:18;2;2;
46681;PMS5003;34101;53.430;-2.224;2024-02-04T10:15:45;3;3;
46681;PMS5003;34101;53.430;-2.224;2024-02-04T10:18:13;2;2;
46681;PMS5003;34101;53.430;-2.224;2024-02-04T10:20:40;2;2;
46681;PMS5003;34101;53.430;-2.224;2024-02-04T10:23:09;3;3;
46681;PMS5003;34101;53.430;-2.224;2024-02-04T10:25:37;2;2;
46681;PMS5003;34101;53.430;-2.224;2024-02-04T10:28:04;1;1;
46681;PMS5003;34101;53.430;-2.224;2024-02-04T10:30:32;4;4;
46681;PMS5003;34101;53.430;-2.224;2024-02-04T10:33:00;2;2;
46681;PMS5003;34101;53.430;-2.224;2024-02-04T10:35:27;3;3;
46681;PMS5003;34101;53.430;-2.224;2024-02-04T10:37:55;3;2;
46681;PMS5003;34101;53.430;-2.224;2024-02-04T10:40:23;2;2;
46681;PMS5003;34101;53.430;-2.224;2024-02-04T10:42:50;2;2;
46681;PMS5003;34101;53.430;-2.224;2024-02-04T10:45:25;3;3;
46681;PMS5003;34101;53.430;-2.224;2024-02-04T10:48:00;2;2;
46681;PMS5003;34101;53.430;-2.224;2024-02-04T10:50:28;4;2;
46681;PMS5003;34101;53.430;-2.224;2024-02-04T10:52:59;4;3;
46681;PMS5003;34101;53.430;-2.224;2024-02-04T10:55:31;4;4;
46681;PMS5003;34101;53.430;-2.224;2024-02-04T10:58:03;4;4;
46681;PMS5003;34101;53.430;-2.224;2024-02-04T11:00:33;2;2;
46681;PMS5003;34101;53.430;-2.224;2024-02-04T11:03:02;7;3;
46681;PMS5003;34101;53.430;-2.224;2024-02-04T11:05:30;3;3;
46681;PMS5003;34101;53.430;-2.224;2024-02-04T11:08:01;2;2;
46681;PMS5003;34101;53.430;-2.224;2024-02-04T11:10:29;3;3;
46681;PMS5003;34101;53.430;-2.224;2024-02-04T11:12:57;2;2;
46681;PMS5003;34101;53.430;-2.224;2024-02-04T11:15:32;3;2;
46681;PMS5003;34101;53.430;-2.224;2024-02-04T11:18:09;5;2;
46681;PMS5003;34101;53.430;-2.224;2024-02-04T11:20:57;3;3;
46681;PMS5003;34101;53.430;-2.224;2024-02-04T11:23:37;2;2;
46681;PMS5003;34101;53.430;-2.224;2024-02-04T11:26:16;4;2;
46681;PMS5003;34101;53.430;-2.224;2024-02-04T11:28:45;3;3;
46681;PMS5003;34101;53.430;-2.224;2024-02-04T11:31:13;3;1;
46681;PMS5003;34101;53.430;-2.224;2024-02-04T11:33:41;2;2;
46681;PMS5003;34101;53.430;-2.224;2024-02-04T11:36:12;1;1;
46681;PMS5003;34101;53.430;-2.224;2024-02-04T11:38:40;4;3;
46681;PMS5003;34101;53.430;-2.224;2024-02-04T11:41:08;2;2;
46681;PMS5003;34101;53.430;-2.224;2024-02-04T11:43:36;3;3;
46681;PMS5003;34101;53.430;-2.224;2024-02-04T11:46:04;2;2;
46681;PMS5003;34101;53.430;-2.224;2024-02-04T11:48:32;2;2;
46681;PMS5003;34101;53.430;-2.224;2024-02-04T11:51:01;1;1;
46681;PMS5003;34101;53.430;-2.224;2024-02-04T11:53:30;1;1;
46681;PMS5003;34101;53.430;-2.224;2024-02-04T11:55:57;2;1;
46681;PMS5003;34101;53.430;-2.224;2024-02-04T11:58:27;1;1;
46681;PMS5003;34101;53.430;-2.224;2024-02-04T12:00:55;3;3;
46681;PMS5003;34101;53.430;-2.224;2024-02-04T12:03:31;3;2;
46681;PMS5003;34101;53.430;-2.224;2024-02-04T12:06:00;1;1;
46681;PMS5003;34101;53.430;-2.224;2024-02-04T12:08:29;1;1;
46681;PMS5003;34101;53.430;-2.224;2024-02-04T12:10:59;2;2;
46681;PMS5003;34101;53.430;-2.224;2024-02-04T12:13:27;3;1;
46681;PMS5003;34101;53.430;-2.224;2024-02-04T12:15:55;1;1;
46681;PMS5003;34101;53.430;-2.224;2024-02-04T12:18:23;1;1;
46681;PMS5003;34101;53.430;-2.224;2024-02-04T12:20:50;2;2;
46681;PMS5003;34101;53.430;-2.224;2024-02-04T12:23:18;1;1;
46681;PMS5003;34101;53.430;-2.224;2024-02-04T12:25:45;1;1;
46681;PMS5003;34101;53.430;-2.224;2024-02-04T12:28:13;0;0;
46681;PMS5003;34101;53.430;-2.224;2024-02-04T12:30:51;1;1;
46681;PMS5003;34101;53.430;-2.224;2024-02-04T12:33:20;2;1;
46681;PMS5003;34101;53.430;-2.224;2024-02-04T12:35:49;2;1;
46681;PMS5003;34101;53.430;-2.224;2024-02-04T12:38:16;1;1;
46681;PMS5003;34101;53.430;-2.224;2024-02-04T12:40:43;0;0;
46681;PMS5003;34101;53.430;-2.224;2024-02-04T12:43:11;0;0;
46681;PMS5003;34101;53.430;-2.224;2024-02-04T12:45:38;1;1;
46681;PMS5003;34101;53.430;-2.224;2024-02-04T12:48:06;2;1;
46681;PMS5003;34101;53.430;-2.224;2024-02-04T12:50:36;0;0;
46681;PMS5003;34101;53.430;-2.224;2024-02-04T12:53:04;1;1;
46681;PMS5003;34101;53.430;-2.224;2024-02-04T12:55:32;0;0;
46681;PMS5003;34101;53.430;-2.224;2024-02-04T12:58:01;1;1;
46681;PMS5003;34101;53.430;-2.224;2024-02-04T13:00:30;0;0;
46681;PMS5003;34101;53.430;-2.224;2024-02-04T13:02:58;0;0;
46681;PMS5003;34101;53.430;-2.224;2024-02-04T13:05:26;1;1;
46681;PMS5003;34101;53.430;-2.224;2024-02-04T13:07:54;1;1;
46681;PMS5003;34101;53.430;-2.224;2024-02-04T13:10:23;0;0;
46681;PMS5003;34101;53.430;-2.224;2024-02-04T13:12:59;1;1;
46681;PMS5003;34101;53.430;-2.224;2024-02-04T13:15:28;2;2;
46681;PMS5003;34101;53.430;-2.224;2024-02-04T13:17:56;1;1;
46681;PMS5003;34101;53.430;-2.224;2024-02-04T13:20:23;1;1;
46681;PMS5003;34101;53.430;-2.224;2024-02-04T13:22:50;3;1;
46681;PMS5003;34101;53.430;-2.224;2024-02-04T13:25:23;0;0;
46681;PMS5003;34101;53.430;-2.224;2024-02-04T13:27:50;1;1;
46681;PMS5003;34101;53.430;-2.224;2024-02-04T13:30:18;1;0;
46681;PMS5003;34101;53.430;-2.224;2024-02-04T13:32:46;1;1;
46681;PMS5003;34101;53.430;-2.224;2024-02-04T13:35:13;1;1;
46681;PMS5003;34101;53.430;-2.224;2024-02-04T13:37:41;2;0;
46681;PMS5003;34101;53.430;-2.224;2024-02-04T13:40:10;0;0;
46681;PMS5003;34101;53.430;-2.224;2024-02-04T13:42:37;1;1;
46681;PMS5003;34101;53.430;-2.224;2024-02-04T13:45:05;0;0;
46681;PMS5003;34101;53.430;-2.224;2024-02-04T13:47:34;1;1;
46681;PMS5003;34101;53.430;-2.224;2024-02-04T13:50:01;0;0;
46681;PMS5003;34101;53.430;-2.224;2024-02-04T13:52:29;2;0;
46681;PMS5003;34101;53.430;-2.224;2024-02-04T13:54:56;1;1;
46681;PMS5003;34101;53.430;-2.224;2024-02-04T13:57:24;0;0;
46681;PMS5003;34101;53.430;-2.224;2024-02-04T13:59:51;0;0;
46681;PMS5003;34101;53.430;-2.224;2024-02-04T14:02:18;1;1;
46681;PMS5003;34101;53.430;-2.224;2024-02-04T14:04:46;2;0;
46681;PMS5003;34101;53.430;-2.224;2024-02-04T14:07:13;1;1;
46681;PMS5003;34101;53.430;-2.224;2024-02-04T14:09:41;2;1;
46681;PMS5003;34101;53.430;-2.224;2024-02-04T14:12:08;1;0;
46681;PMS5003;34101;53.430;-2.224;2024-02-04T14:14:35;1;1;
46681;PMS5003;34101;53.430;-2.224;2024-02-04T14:17:03;2;1;
46681;PMS5003;34101;53.430;-2.224;2024-02-04T14:19:31;3;3;
46681;PMS5003;34101;53.430;-2.224;2024-02-04T14:21:58;0;0;
46681;PMS5003;34101;53.430;-2.224;2024-02-04T14:24:26;1;1;
46681;PMS5003;34101;53.430;-2.224;2024-02-04T14:26:56;1;0;
46681;PMS5003;34101;53.430;-2.224;2024-02-04T14:29:24;2;0;
46681;PMS5003;34101;53.430;-2.224;2024-02-04T14:31:51;1;0;
46681;PMS5003;34101;53.430;-2.224;2024-02-04T14:34:19;2;2;
46681;PMS5003;34101;53.430;-2.224;2024-02-04T14:36:47;1;1;
46681;PMS5003;34101;53.430;-2.224;2024-02-04T14:39:14;1;1;
46681;PMS5003;34101;53.430;-2.224;2024-02-04T14:41:42;2;0;
46681;PMS5003;34101;53.430;-2.224;2024-02-04T14:44:09;1;1;
46681;PMS5003;34101;53.430;-2.224;2024-02-04T14:46:37;1;1;
46681;PMS5003;34101;53.430;-2.224;2024-02-04T14:49:06;1;1;
46681;PMS5003;34101;53.430;-2.224;2024-02-04T14:51:34;1;1;
46681;PMS5003;34101;53.430;-2.224;2024-02-04T14:54:09;3;1;
46681;PMS5003;34101;53.430;-2.224;2024-02-04T14:56:37;4;2;
46681;PMS5003;34101;53.430;-2.224;2024-02-04T14:59:04;1;1;
46681;PMS5003;34101;53.430;-2.224;2024-02-04T15:01:32;4;2;
46681;PMS5003;34101;53.430;-2.224;2024-02-04T15:03:59;2;1;
46681;PMS5003;34101;53.430;-2.224;2024-02-04T15:06:26;3;3;
46681;PMS5003;34101;53.430;-2.224;2024-02-04T15:08:55;4;3;
46681;PMS5003;34101;53.430;-2.224;2024-02-04T15:11:23;3;2;
46681;PMS5003;34101;53.430;-2.224;2024-02-04T15:13:51;3;3;
46681;PMS5003;34101;53.430;-2.224;2024-02-04T15:16:20;2;2;
46681;PMS5003;34101;53.430;-2.224;2024-02-04T15:18:48;2;1;
46681;PMS5003;34101;53.430;-2.224;2024-02-04T15:21:16;2;2;
46681;PMS5003;34101;53.430;-2.224;2024-02-04T15:23:45;3;3;
46681;PMS5003;34101;53.430;-2.224;2024-02-04T15:26:14;5;2;
46681;PMS5003;34101;53.430;-2.224;2024-02-04T15:28:43;5;3;
46681;PMS5003;34101;53.430;-2.224;2024-02-04T15:31:11;8;3;
46681;PMS5003;34101;53.430;-2.224;2024-02-04T15:33:39;3;3;
46681;PMS5003;34101;53.430;-2.224;2024-02-04T15:36:07;6;3;
46681;PMS5003;34101;53.430;-2.224;2024-02-04T15:38:35;4;2;
46681;PMS5003;34101;53.430;-2.224;2024-02-04T15:41:03;8;3;
46681;PMS5003;34101;53.430;-2.224;2024-02-04T15:43:31;6;5;
46681;PMS5003;34101;53.430;-2.224;2024-02-04T15:45:59;10;5;
46681;PMS5003;34101;53.430;-2.224;2024-02-04T15:48:33;9;6;
46681;PMS5003;34101;53.430;-2.224;2024-02-04T15:51:05;6;4;
46681;PMS5003;34101;53.430;-2.224;2024-02-04T15:53:34;8;6;
46681;PMS5003;34101;53.430;-2.224;2024-02-04T15:56:04;7;4;
46681;PMS5003;34101;53.430;-2.224;2024-02-04T15:58:33;6;5;
46681;PMS5003;34101;53.430;-2.224;2024-02-04T16:01:04;6;3;
46681;PMS5003;34101;53.430;-2.224;2024-02-04T16:03:36;9;6;
46681;PMS5003;34101;53.430;-2.224;2024-02-04T16:06:04;7;6;
46681;PMS5003;34101;53.430;-2.224;2024-02-04T16:08:32;9;6;
46681;PMS5003;34101;53.430;-2.224;2024-02-04T16:11:01;7;4;
46681;PMS5003;34101;53.430;-2.224;2024-02-04T16:13:35;4;4;
46681;PMS5003;34101;53.430;-2.224;2024-02-04T16:16:05;4;4;
46681;PMS5003;34101;53.430;-2.224;2024-02-04T16:18:35;8;6;
46681;PMS5003;34101;53.430;-2.224;2024-02-04T16:21:03;11;6;
46681;PMS5003;34101;53.430;-2.224;2024-02-04T16:23:35;9;6;
46681;PMS5003;34101;53.430;-2.224;2024-02-04T16:26:03;4;4;
46681;PMS5003;34101;53.430;-2.224;2024-02-04T16:28:31;5;3;
46681;PMS5003;34101;53.430;-2.224;2024-02-04T16:30:58;8;6;
46681;PMS5003;34101;53.430;-2.224;2024-02-04T16:33:26;7;5;
46681;PMS5003;34101;53.430;-2.224;2024-02-04T16:35:53;8;5;
46681;PMS5003;34101;53.430;-2.224;2024-02-04T16:38:21;6;4;
46681;PMS5003;34101;53.430;-2.224;2024-02-04T16:40:49;9;7;